Time,TemperatureF,DewpointF,PressureIn,WindDirection,WindDirectionDegrees,WindSpeedMPH,WindSpeedGustMPH,Humidity,HourlyPrecipIn,Conditions,Clouds,dailyrainin,SoftwareType,DateUTC
2013-06-24 00:02:00,77.0,77.0,30.16,East,97,1.0,3.0,100,99.99,,,-99.99,,2013-06-24 04:02:00,
2013-06-24 00:12:00,77.0,77.0,30.15,ENE,76,2.0,4.0,100,99.99,,,-99.99,,2013-06-24 04:12:00,
2013-06-24 00:22:00,77.0,77.0,30.15,ENE,76,2.0,4.0,100,99.99,,,-99.99,,2013-06-24 04:22:00,
2013-06-24 00:33:00,76.0,76.0,30.15,SE,132,2.0,5.0,100,99.99,,,-99.99,,2013-06-24 04:33:00,
2013-06-24 00:43:00,76.0,76.0,30.15,SE,143,2.0,4.0,100,99.99,,,-99.99,,2013-06-24 04:43:00,
2013-06-24 00:52:00,76.0,76.0,30.14,East,101,2.0,3.0,100,99.99,,,-99.99,,2013-06-24 04:52:00,
2013-06-24 01:02:00,75.0,75.0,30.14,ESE,113,1.0,2.0,100,99.99,,,-99.99,,2013-06-24 05:02:00,
2013-06-24 01:12:00,75.0,75.0,30.14,ESE,117,1.0,2.0,100,99.99,,,-99.99,,2013-06-24 05:12:00,
2013-06-24 01:22:00,76.0,76.0,30.14,ESE,111,1.0,3.0,100,99.99,,,-99.99,,2013-06-24 05:22:00,
2013-06-24 01:35:00,75.0,75.0,30.14,SE,142,1.0,3.0,100,99.99,,,-99.99,,2013-06-24 05:35:00,
2013-06-24 01:46:00,75.0,75.0,30.14,SE,142,1.0,3.0,100,99.99,,,-99.99,,2013-06-24 05:46:00,
2013-06-24 01:53:00,75.0,75.0,30.13,South,172,1.0,2.0,100,99.99,,,-99.99,,2013-06-24 05:53:00,
2013-06-24 02:14:00,75.0,75.0,30.13,East,97,0.0,2.0,100,99.99,,,-99.99,,2013-06-24 06:14:00,
2013-06-24 02:23:00,75.0,75.0,30.13,North,0,0.0,0.0,100,99.99,,,-99.99,,2013-06-24 06:23:00,
2013-06-24 02:36:00,75.0,75.0,30.13,North,0,0.0,0.0,100,99.99,,,-99.99,,2013-06-24 06:36:00,
2013-06-24 02:45:00,75.0,75.0,30.13,North,0,0.0,0.0,100,99.99,,,-99.99,,2013-06-24 06:45:00,
2013-06-24 02:52:00,74.0,74.0,30.13,North,0,0.0,0.0,100,99.99,,,-99.99,,2013-06-24 06:52:00,
2013-06-24 03:05:00,74.0,74.0,30.13,North,0,0.0,0.0,100,99.99,,,-99.99,,2013-06-24 07:05:00,
2013-06-24 03:14:00,74.0,74.0,30.12,North,0,0.0,0.0,100,99.99,,,-99.99,,2013-06-24 07:14:00,
2013-06-24 03:29:00,75.0,75.0,30.12,North,0,0.0,0.0,100,99.99,,,-99.99,,2013-06-24 07:29:00,
2013-06-24 03:37:00,74.0,74.0,30.12,North,0,0.0,0.0,100,99.99,,,-99.99,,2013-06-24 07:37:00,
2013-06-24 03:47:00,74.0,74.0,30.11,North,0,0.0,0.0,100,99.99,,,-99.99,,2013-06-24 07:47:00,
2013-06-24 03:54:00,74.0,74.0,30.12,North,0,0.0,0.0,100,99.99,,,-99.99,,2013-06-24 07:54:00,
2013-06-24 04:04:00,74.0,74.0,30.12,East,90,0.0,1.0,100,99.99,,,-99.99,,2013-06-24 08:04:00,
2013-06-24 04:14:00,74.0,74.0,30.12,North,0,0.0,0.0,100,99.99,,,-99.99,,2013-06-24 08:14:00,
2013-06-24 04:26:00,74.0,74.0,30.12,East,82,0.0,1.0,100,99.99,,,-99.99,,2013-06-24 08:26:00,
2013-06-24 04:35:00,74.0,74.0,30.11,East,97,0.0,2.0,100,99.99,,,-99.99,,2013-06-24 08:35:00,
2013-06-24 04:46:00,74.0,74.0,30.11,North,0,0.0,0.0,100,99.99,,,-99.99,,2013-06-24 08:46:00,
2013-06-24 04:52:00,74.0,74.0,30.11,North,0,0.0,0.0,100,99.99,,,-99.99,,2013-06-24 08:52:00,
2013-06-24 05:06:00,74.0,74.0,30.12,North,0,0.0,0.0,100,99.99,,,-99.99,,2013-06-24 09:06:00,
2013-06-24 05:15:00,74.0,74.0,30.12,North,0,0.0,0.0,100,99.99,,,-99.99,,2013-06-24 09:15:00,
2013-06-24 05:25:00,74.0,74.0,30.12,North,0,0.0,0.0,100,99.99,,,-99.99,,2013-06-24 09:25:00,
2013-06-24 05:47:00,74.0,74.0,30.12,North,0,0.0,0.0,100,99.99,,,-99.99,,2013-06-24 09:47:00,
2013-06-24 05:55:00,74.0,74.0,30.12,North,0,0.0,0.0,100,99.99,,,-99.99,,2013-06-24 09:55:00,
2013-06-24 06:05:00,74.0,74.0,30.13,North,0,0.0,0.0,100,99.99,,,-99.99,,2013-06-24 10:05:00,
2013-06-24 06:14:00,74.0,74.0,30.13,North,0,0.0,0.0,100,99.99,,,-99.99,,2013-06-24 10:14:00,
2013-06-24 06:24:00,74.0,74.0,30.12,East,98,0.0,3.0,100,99.99,,,-99.99,,2013-06-24 10:24:00,
2013-06-24 06:49:00,74.0,74.0,30.13,ESE,120,0.0,2.0,100,99.99,,,-99.99,,2013-06-24 10:49:00,
2013-06-24 06:54:00,73.0,73.0,30.13,East,86,1.0,3.0,100,99.99,,,-99.99,,2013-06-24 10:54:00,
2013-06-24 07:03:00,73.0,73.0,30.13,East,98,0.0,1.0,100,99.99,,,-99.99,,2013-06-24 11:03:00,
2013-06-24 07:15:00,74.0,74.0,30.13,South,181,1.0,3.0,100,99.99,,,-99.99,,2013-06-24 11:15:00,
2013-06-24 07:29:00,74.0,74.0,30.14,SE,145,1.0,4.0,100,99.99,,,-99.99,,2013-06-24 11:29:00,
2013-06-24 07:34:00,74.0,74.0,30.17,SE,146,2.0,4.0,100,99.99,,,-99.99,,2013-06-24 11:34:00,
2013-06-24 07:46:00,74.0,74.0,30.14,East,90,1.0,4.0,100,99.99,,,-99.99,,2013-06-24 11:46:00,
2013-06-24 07:55:00,75.0,75.0,30.14,East,100,2.0,5.0,100,99.99,,,-99.99,,2013-06-24 11:55:00,
2013-06-24 08:05:00,75.0,75.0,30.15,NE,49,1.0,3.0,100,99.99,,,-99.99,,2013-06-24 12:05:00,
2013-06-24 08:16:00,76.0,76.0,30.15,ESE,118,2.0,5.0,100,99.99,,,-99.99,,2013-06-24 12:16:00,
2013-06-24 08:36:00,77.0,77.0,30.16,SE,124,3.0,5.0,100,99.99,,,-99.99,,2013-06-24 12:36:00,
2013-06-24 08:48:00,79.0,79.0,30.16,SE,127,3.0,4.0,100,99.99,,,-99.99,,2013-06-24 12:48:00,
2013-06-24 08:53:00,80.0,80.0,30.16,ESE,104,4.0,7.0,100,99.99,,,-99.99,,2013-06-24 12:53:00,
2013-06-24 09:06:00,80.0,80.0,30.17,SE,141,4.0,6.0,100,99.99,,,-99.99,,2013-06-24 13:06:00,
2013-06-24 09:43:00,82.0,77.0,30.17,ESE,120,5.0,8.0,86,99.99,,,-99.99,,2013-06-24 13:43:00,
2013-06-24 10:37:00,85.0,74.0,30.18,SE,138,3.0,7.0,70,99.99,,,-99.99,,2013-06-24 14:37:00,
2013-06-24 10:45:00,84.0,72.0,30.19,SE,141,4.0,8.0,67,99.99,,,-99.99,,2013-06-24 14:45:00,
2013-06-24 11:14:00,84.0,72.0,30.19,SE,142,4.0,8.0,67,99.99,,,-99.99,,2013-06-24 15:14:00,
2013-06-24 11:54:00,87.0,67.0,30.19,South,173,7.0,10.0,51,99.99,,,-99.99,,2013-06-24 15:54:00,
2013-06-24 13:35:00,88.0,68.0,30.16,SSE,165,6.0,10.0,52,99.99,,,-99.99,,2013-06-24 17:35:00,
2013-06-24 13:46:00,89.0,68.0,30.15,South,169,3.0,7.0,50,99.99,,,-99.99,,2013-06-24 17:46:00,
2013-06-24 14:46:00,90.0,66.0,30.13,South,170,4.0,9.0,45,99.99,,,-99.99,,2013-06-24 18:46:00,
2013-06-24 16:45:00,91.0,63.0,30.09,ESE,111,3.0,7.0,39,99.99,,,-99.99,,2013-06-24 20:45:00,
2013-06-24 17:46:00,88.0,66.0,30.07,East,89,5.0,8.0,49,99.99,,,-99.99,,2013-06-24 21:46:00,
2013-06-24 17:53:00,88.0,68.0,30.06,ENE,70,4.0,8.0,51,99.99,,,-99.99,,2013-06-24 21:53:00,
2013-06-24 19:05:00,83.0,70.0,30.07,SSE,162,2.0,4.0,66,99.99,,,-99.99,,2013-06-24 23:05:00,
2013-06-24 19:14:00,83.0,70.0,30.07,SSE,166,1.0,3.0,66,99.99,,,-99.99,,2013-06-24 23:14:00,
2013-06-24 19:27:00,83.0,71.0,30.08,ESE,103,0.0,1.0,68,99.99,,,-99.99,,2013-06-24 23:27:00,
2013-06-24 19:34:00,83.0,73.0,30.08,NNE,17,1.0,2.0,71,99.99,,,-99.99,,2013-06-24 23:34:00,
2013-06-24 19:45:00,82.0,73.0,30.09,NNE,27,4.0,5.0,74,99.99,,,-99.99,,2013-06-24 23:45:00,
2013-06-24 19:53:00,82.0,73.0,30.08,NNE,21,2.0,4.0,75,99.99,,,-99.99,,2013-06-24 23:53:00,
2013-06-24 20:12:00,82.0,74.0,30.08,East,96,1.0,4.0,76,99.99,,,-99.99,,2013-06-25 00:12:00,
2013-06-24 20:24:00,82.0,72.0,30.08,ESE,105,4.0,8.0,73,99.99,,,-99.99,,2013-06-25 00:24:00,
2013-06-24 20:34:00,82.0,71.0,30.08,ESE,110,3.0,5.0,69,99.99,,,-99.99,,2013-06-25 00:34:00,
2013-06-24 20:54:00,81.0,71.0,30.08,ESE,121,1.0,2.0,72,99.99,,,-99.99,,2013-06-25 00:54:00,
2013-06-24 21:04:00,81.0,72.0,30.08,SSE,165,2.0,3.0,74,99.99,,,-99.99,,2013-06-25 01:04:00,
2013-06-24 21:16:00,81.0,72.0,30.08,SSE,159,2.0,4.0,75,99.99,,,-99.99,,2013-06-25 01:16:00,